createdAt,value
2023-01-31T00:00:43.363Z,32.80
2023-01-31T00:01:43.325Z,34.10
2023-01-31T00:02:43.342Z,30.70
2023-01-31T00:03:43.347Z,25.10
2023-01-31T00:04:43.283Z,28.10
2023-01-31T00:05:43.272Z,29.10
2023-01-31T00:06:43.256Z,28.40
2023-01-31T00:07:43.248Z,30.30
2023-01-31T00:08:43.237Z,23.40
2023-01-31T00:09:43.224Z,35.80
2023-01-31T00:10:43.217Z,34.10
2023-01-31T00:11:43.202Z,26.70
2023-01-31T00:12:43.191Z,28.80
2023-01-31T00:13:43.185Z,33.10
2023-01-31T00:14:43.168Z,27.90
2023-01-31T00:15:43.171Z,22.60
2023-01-31T00:16:43.175Z,23.80
2023-01-31T00:17:43.131Z,27.90
2023-01-31T00:18:43.128Z,32.80
2023-01-31T00:19:43.111Z,31.40
2023-01-31T00:20:43.100Z,33.80
2023-01-31T00:21:43.089Z,30.90
2023-01-31T00:22:43.080Z,30.90
2023-01-31T00:23:43.074Z,32.20
2023-01-31T00:24:43.057Z,28.30
2023-01-31T00:25:43.045Z,26.90
2023-01-31T00:26:43.136Z,27.60
2023-01-31T00:27:43.023Z,32.20
2023-01-31T00:28:43.014Z,23.60
2023-01-31T00:29:42.998Z,31.00
2023-01-31T00:30:42.997Z,26.80
2023-01-31T00:31:43.080Z,31.10
2023-01-31T00:32:43.007Z,37.90
2023-01-31T00:33:42.960Z,34.30
2023-01-31T00:34:42.945Z,29.50
2023-01-31T00:35:42.932Z,33.70
2023-01-31T00:36:42.921Z,34.60
2023-01-31T00:37:42.910Z,29.00
2023-01-31T00:38:42.901Z,33.70
2023-01-31T00:39:42.889Z,31.50
2023-01-31T00:40:42.878Z,29.80
2023-01-31T00:41:42.865Z,22.90
2023-01-31T00:42:42.855Z,33.10
2023-01-31T00:43:42.851Z,30.30
2023-01-31T00:44:42.834Z,25.20
2023-01-31T00:45:42.823Z,32.70
2023-01-31T00:46:42.848Z,41.10
2023-01-31T00:47:42.801Z,37.30
2023-01-31T00:48:42.815Z,37.90
2023-01-31T00:49:42.786Z,36.60
2023-01-31T00:50:42.782Z,35.60
2023-01-31T00:51:42.758Z,34.10
2023-01-31T00:52:42.880Z,35.70
2023-01-31T00:53:42.734Z,37.40
2023-01-31T00:54:42.734Z,38.40
2023-01-31T00:55:42.711Z,37.40
2023-01-31T00:56:42.701Z,35.80
2023-01-31T00:57:42.687Z,40.40
2023-01-31T00:58:42.729Z,33.90
2023-01-31T00:59:42.674Z,40.80
2023-01-31T01:00:42.694Z,40.20
2023-01-31T01:01:42.674Z,38.90
2023-01-31T01:02:42.654Z,42.40
2023-01-31T01:03:42.629Z,40.30
2023-01-31T01:04:42.635Z,35.80
2023-01-31T01:05:42.601Z,39.30
2023-01-31T01:06:42.586Z,39.50
2023-01-31T01:07:42.577Z,47.70
2023-01-31T01:08:42.603Z,40.10
2023-01-31T01:09:42.549Z,44.50
2023-01-31T01:10:42.539Z,43.40
2023-01-31T01:11:42.526Z,37.40
2023-01-31T01:12:42.519Z,45.30
2023-01-31T01:13:42.511Z,45.90
2023-01-31T01:14:42.500Z,43.90
2023-01-31T01:15:42.484Z,37.90
2023-01-31T01:16:42.606Z,39.10
2023-01-31T01:17:42.482Z,41.50
2023-01-31T01:18:42.452Z,25.80
2023-01-31T01:19:42.437Z,40.90
2023-01-31T01:20:42.455Z,37.30
2023-01-31T01:21:42.412Z,39.90
2023-01-31T01:22:42.405Z,29.90
2023-01-31T01:23:42.397Z,38.00
2023-01-31T01:24:42.385Z,38.70
2023-01-31T01:25:42.369Z,36.70
2023-01-31T01:26:42.436Z,37.50
2023-01-31T01:27:42.349Z,36.10
2023-01-31T01:28:42.335Z,42.30
2023-01-31T01:29:42.322Z,39.90
2023-01-31T01:30:42.316Z,34.50
2023-01-31T01:31:42.419Z,40.70
2023-01-31T01:32:42.290Z,43.00
2023-01-31T01:33:42.284Z,28.50
2023-01-31T01:34:42.270Z,37.90
2023-01-31T01:35:42.263Z,33.40
2023-01-31T01:36:42.282Z,32.50
2023-01-31T01:37:42.228Z,36.20
2023-01-31T01:38:42.223Z,35.10
2023-01-31T01:39:42.208Z,27.70
2023-01-31T01:40:42.197Z,33.50
2023-01-31T01:41:42.187Z,26.80
2023-01-31T01:42:42.177Z,31.10
2023-01-31T01:43:42.165Z,28.90
2023-01-31T01:44:42.158Z,33.30
2023-01-31T01:45:42.153Z,31.00
2023-01-31T01:46:42.140Z,28.50
2023-01-31T01:47:42.124Z,32.80
2023-01-31T01:48:42.112Z,36.00
2023-01-31T01:49:42.098Z,29.70
2023-01-31T01:50:42.090Z,32.20
2023-01-31T01:51:42.080Z,27.80
2023-01-31T01:52:42.099Z,30.60
2023-01-31T01:53:42.057Z,35.30
2023-01-31T01:54:42.047Z,33.30
2023-01-31T01:55:42.036Z,38.10
2023-01-31T01:56:42.030Z,31.00
2023-01-31T01:57:42.015Z,30.50
2023-01-31T01:58:42.006Z,27.70
2023-01-31T01:59:41.994Z,28.60
2023-01-31T02:00:42.016Z,34.60
2023-01-31T02:01:41.975Z,32.00
2023-01-31T02:02:41.962Z,28.20
2023-01-31T02:03:41.962Z,24.20
2023-01-31T02:04:41.942Z,32.20
2023-01-31T02:05:41.930Z,30.10
2023-01-31T02:06:41.922Z,31.10
2023-01-31T02:07:41.989Z,29.50
2023-01-31T02:08:41.923Z,32.70
2023-01-31T02:09:41.888Z,30.90
2023-01-31T02:10:41.879Z,31.30
2023-01-31T02:11:41.866Z,27.60
2023-01-31T02:12:41.865Z,19.20
2023-01-31T02:13:41.842Z,30.10
2023-01-31T02:14:41.830Z,26.10
2023-01-31T02:15:41.817Z,30.90
2023-01-31T02:16:41.869Z,31.00
2023-01-31T02:17:41.797Z,34.30
2023-01-31T02:18:41.787Z,32.60
2023-01-31T02:19:41.776Z,30.50
2023-01-31T02:20:41.761Z,30.60
2023-01-31T02:21:41.750Z,33.50
2023-01-31T02:22:41.740Z,31.30
2023-01-31T02:23:41.730Z,34.10
2023-01-31T02:24:41.854Z,24.30
2023-01-31T02:25:41.717Z,41.00
2023-01-31T02:26:41.770Z,37.20
2023-01-31T02:27:41.749Z,30.60
2023-01-31T02:28:41.797Z,34.40
2023-01-31T02:29:41.821Z,31.30
2023-01-31T02:30:41.768Z,36.50
2023-01-31T02:31:41.737Z,39.00
2023-01-31T02:32:41.633Z,41.10
2023-01-31T02:33:41.617Z,37.00
2023-01-31T02:34:41.607Z,39.00
2023-01-31T02:35:41.592Z,34.50
2023-01-31T02:36:41.582Z,41.30
2023-01-31T02:37:41.576Z,36.10
2023-01-31T02:38:41.565Z,33.20
2023-01-31T02:39:41.547Z,38.80
2023-01-31T02:40:41.564Z,45.10
2023-01-31T02:41:41.528Z,36.10
2023-01-31T02:42:41.521Z,44.60
2023-01-31T02:43:41.506Z,40.40
2023-01-31T02:44:41.495Z,40.30
2023-01-31T02:45:41.622Z,42.40
2023-01-31T02:46:41.476Z,35.70
2023-01-31T02:47:41.461Z,41.30
2023-01-31T02:48:41.452Z,43.20
2023-01-31T02:49:41.437Z,49.00
2023-01-31T02:50:41.430Z,38.70
2023-01-31T02:51:41.415Z,41.20
2023-01-31T02:52:41.406Z,48.20
2023-01-31T02:53:41.394Z,36.30
2023-01-31T02:54:41.389Z,44.30
2023-01-31T02:55:41.371Z,43.50
2023-01-31T02:56:41.402Z,40.20
2023-01-31T02:57:41.355Z,43.90
2023-01-31T02:58:41.339Z,38.90
2023-01-31T02:59:41.326Z,53.60
2023-01-31T03:00:41.318Z,43.60
2023-01-31T03:01:41.418Z,38.40
2023-01-31T03:02:41.340Z,40.30
2023-01-31T03:03:41.286Z,39.20
2023-01-31T03:04:41.275Z,39.80
2023-01-31T03:05:41.264Z,38.40
2023-01-31T03:06:41.252Z,55.40
2023-01-31T03:07:41.240Z,45.30
2023-01-31T03:08:41.233Z,42.50
2023-01-31T03:09:41.223Z,37.30
2023-01-31T03:10:41.209Z,43.10
2023-01-31T03:11:41.195Z,43.30
2023-01-31T03:12:41.212Z,44.20
2023-01-31T03:13:41.174Z,44.50
2023-01-31T03:14:41.168Z,37.80
2023-01-31T03:15:41.164Z,42.70
2023-01-31T03:16:41.172Z,46.00
2023-01-31T03:17:41.139Z,44.10
2023-01-31T03:18:41.125Z,37.90
2023-01-31T03:19:41.112Z,38.10
2023-01-31T03:20:41.107Z,37.40
2023-01-31T03:21:41.090Z,44.80
2023-01-31T03:22:41.100Z,53.00
2023-01-31T03:23:41.068Z,57.60
2023-01-31T03:24:41.058Z,43.70
2023-01-31T03:25:41.042Z,36.20
2023-01-31T03:26:41.075Z,45.40
2023-01-31T03:27:41.021Z,42.60
2023-01-31T03:28:41.041Z,40.80
2023-01-31T03:29:41.005Z,42.30
2023-01-31T03:30:41.093Z,41.00
2023-01-31T03:31:41.100Z,39.50
2023-01-31T03:32:40.979Z,40.00
2023-01-31T03:33:40.957Z,40.80
2023-01-31T03:34:40.945Z,47.10
2023-01-31T03:35:40.933Z,43.90
2023-01-31T03:36:40.928Z,50.00
2023-01-31T03:37:40.911Z,52.10
2023-01-31T03:38:40.904Z,48.80
2023-01-31T03:39:40.888Z,40.50
2023-01-31T03:40:40.883Z,41.10
2023-01-31T03:41:40.865Z,45.30
2023-01-31T03:42:40.857Z,48.40
2023-01-31T03:43:40.844Z,48.70
2023-01-31T03:44:40.861Z,41.90
2023-01-31T03:45:40.823Z,45.00
2023-01-31T03:46:40.814Z,49.90
2023-01-31T03:47:40.803Z,40.40
2023-01-31T03:48:40.793Z,48.10
2023-01-31T03:49:40.778Z,56.00
2023-01-31T03:50:40.776Z,49.60
2023-01-31T03:51:40.754Z,44.60
2023-01-31T03:52:40.747Z,34.80
2023-01-31T03:53:40.733Z,40.80
2023-01-31T03:54:40.723Z,37.30
2023-01-31T03:55:40.715Z,43.30
2023-01-31T03:56:40.698Z,35.90
2023-01-31T03:57:40.692Z,37.00
2023-01-31T03:58:40.677Z,42.50
2023-01-31T03:59:40.670Z,49.00
2023-01-31T04:00:40.685Z,34.70
2023-01-31T04:01:40.770Z,34.80
2023-01-31T04:02:40.702Z,32.70
2023-01-31T04:03:40.629Z,32.70
2023-01-31T04:04:40.617Z,33.60
2023-01-31T04:05:40.611Z,46.20
2023-01-31T04:06:40.592Z,35.00
2023-01-31T04:07:40.583Z,36.60
2023-01-31T04:08:40.587Z,37.00
2023-01-31T04:09:40.561Z,36.00
2023-01-31T04:10:40.551Z,31.70
2023-01-31T04:11:40.542Z,35.40
2023-01-31T04:12:40.530Z,38.80
2023-01-31T04:13:40.521Z,42.30
2023-01-31T04:14:40.517Z,33.80
2023-01-31T04:15:40.548Z,38.00
2023-01-31T04:16:40.512Z,38.40
2023-01-31T04:17:40.477Z,33.50
2023-01-31T04:18:40.457Z,40.90
2023-01-31T04:19:40.450Z,32.80
2023-01-31T04:20:40.444Z,35.50
2023-01-31T04:21:40.441Z,39.90
2023-01-31T04:22:40.426Z,29.00
2023-01-31T04:23:40.407Z,40.80
2023-01-31T04:24:40.394Z,37.00
2023-01-31T04:25:40.401Z,34.90
2023-01-31T04:26:40.453Z,34.70
2023-01-31T04:27:40.362Z,39.40
2023-01-31T04:28:40.350Z,33.00
2023-01-31T04:29:40.341Z,39.40
2023-01-31T04:30:40.326Z,37.10
2023-01-31T04:31:40.455Z,33.10
2023-01-31T04:32:40.329Z,37.10
2023-01-31T04:33:40.303Z,29.40
2023-01-31T04:34:40.282Z,35.10
2023-01-31T04:35:40.275Z,35.90
2023-01-31T04:36:40.261Z,30.60
2023-01-31T04:37:40.250Z,33.90
2023-01-31T04:38:40.247Z,27.40
2023-01-31T04:39:40.229Z,33.60
2023-01-31T04:40:40.225Z,31.50
2023-01-31T04:41:40.208Z,33.00
2023-01-31T04:42:40.193Z,28.00
2023-01-31T04:43:40.187Z,32.00
2023-01-31T04:44:40.173Z,30.30
2023-01-31T04:45:40.164Z,37.70
2023-01-31T04:46:40.202Z,35.50
2023-01-31T04:47:40.138Z,31.40
2023-01-31T04:48:40.156Z,39.40
2023-01-31T04:49:40.117Z,39.30
2023-01-31T04:50:40.104Z,36.10
2023-01-31T04:51:40.093Z,33.20
2023-01-31T04:52:40.083Z,31.80
2023-01-31T04:53:40.075Z,30.90
2023-01-31T04:54:40.065Z,32.80
2023-01-31T04:55:40.053Z,32.70
2023-01-31T04:56:40.036Z,28.10
2023-01-31T04:57:40.027Z,28.10
2023-01-31T04:58:40.010Z,32.90
2023-01-31T04:59:40.005Z,33.80
2023-01-31T05:00:40.001Z,30.00
2023-01-31T05:01:39.979Z,26.90
2023-01-31T05:02:40.011Z,35.30
2023-01-31T05:03:39.969Z,29.50
2023-01-31T05:04:39.965Z,33.30
2023-01-31T05:05:39.933Z,43.80
2023-01-31T05:06:39.929Z,36.70
2023-01-31T05:07:39.917Z,32.30
2023-01-31T05:08:39.897Z,30.50
2023-01-31T05:09:39.889Z,29.50
2023-01-31T05:10:39.874Z,28.10
2023-01-31T05:11:39.863Z,28.70
2023-01-31T05:12:39.867Z,38.70
2023-01-31T05:13:39.841Z,30.30
2023-01-31T05:14:39.828Z,30.90
2023-01-31T05:15:39.923Z,28.30
2023-01-31T05:16:39.857Z,27.90
2023-01-31T05:17:39.796Z,33.60
2023-01-31T05:18:39.796Z,36.30
2023-01-31T05:19:39.878Z,27.80
2023-01-31T05:20:39.944Z,28.90
2023-01-31T05:21:39.849Z,28.70
2023-01-31T05:22:39.887Z,26.90
2023-01-31T05:23:39.739Z,29.60
2023-01-31T05:24:39.715Z,34.80
2023-01-31T05:25:39.715Z,28.30
2023-01-31T05:26:39.710Z,27.80
2023-01-31T05:27:39.684Z,24.90
2023-01-31T05:28:39.678Z,27.40
2023-01-31T05:29:39.657Z,29.90
2023-01-31T05:30:39.719Z,27.10
2023-01-31T05:31:39.683Z,26.80
2023-01-31T05:32:39.623Z,26.90
2023-01-31T05:33:39.615Z,23.50
2023-01-31T05:34:39.603Z,33.10
2023-01-31T05:35:39.660Z,26.20
2023-01-31T05:36:39.609Z,24.50
2023-01-31T05:37:39.569Z,30.50
2023-01-31T05:38:39.559Z,29.40
2023-01-31T05:39:39.555Z,32.40
2023-01-31T05:40:39.530Z,28.10
2023-01-31T05:41:39.525Z,27.00
2023-01-31T05:42:39.512Z,21.80
2023-01-31T05:43:39.502Z,27.60
2023-01-31T05:44:39.495Z,25.60
2023-01-31T05:45:39.477Z,24.10
2023-01-31T05:46:39.465Z,28.40
2023-01-31T05:47:39.463Z,30.80
2023-01-31T05:48:39.459Z,24.80
2023-01-31T05:49:39.438Z,31.40
2023-01-31T05:50:39.440Z,29.60
2023-01-31T05:51:39.416Z,24.10
2023-01-31T05:52:39.436Z,31.10
2023-01-31T05:53:39.395Z,27.60
2023-01-31T05:54:39.378Z,29.20
2023-01-31T05:55:39.381Z,34.90
2023-01-31T05:56:39.396Z,20.90
2023-01-31T05:57:39.351Z,29.20
2023-01-31T05:58:39.341Z,24.50
2023-01-31T05:59:39.321Z,27.50
2023-01-31T06:00:39.310Z,29.60
2023-01-31T06:01:39.319Z,31.10
2023-01-31T06:02:39.300Z,32.50
2023-01-31T06:03:39.323Z,24.50
2023-01-31T06:04:39.268Z,30.00
2023-01-31T06:05:39.258Z,24.70
2023-01-31T06:06:39.239Z,28.40
2023-01-31T06:07:39.261Z,27.80
2023-01-31T06:08:39.241Z,28.70
2023-01-31T06:09:39.214Z,30.30
2023-01-31T06:10:39.211Z,32.00
2023-01-31T06:11:39.214Z,27.20
2023-01-31T06:12:39.186Z,24.20
2023-01-31T06:13:39.167Z,29.90
2023-01-31T06:14:39.154Z,24.00
2023-01-31T06:15:39.157Z,32.00
2023-01-31T06:16:39.186Z,33.20
2023-01-31T06:17:39.128Z,25.40
2023-01-31T06:18:39.107Z,27.90
2023-01-31T06:19:39.106Z,30.80
2023-01-31T06:20:39.084Z,27.50
2023-01-31T06:21:39.081Z,26.00
2023-01-31T06:22:39.079Z,28.50
2023-01-31T06:23:39.064Z,32.60
2023-01-31T06:24:39.182Z,25.90
2023-01-31T06:25:39.033Z,30.40
2023-01-31T06:26:39.084Z,27.80
2023-01-31T06:27:39.021Z,27.20
2023-01-31T06:28:39.011Z,32.10
2023-01-31T06:29:38.987Z,32.40
2023-01-31T06:30:39.062Z,28.90
2023-01-31T06:31:39.125Z,36.70
2023-01-31T06:32:38.958Z,30.40
2023-01-31T06:33:46.999Z,25.20
2023-01-31T06:34:38.933Z,26.70
2023-01-31T06:35:38.929Z,32.80
2023-01-31T06:36:38.931Z,24.70
2023-01-31T06:37:38.938Z,30.10
2023-01-31T06:38:38.890Z,32.40
2023-01-31T06:39:38.894Z,30.50
2023-01-31T06:40:38.894Z,29.60
2023-01-31T06:41:38.860Z,31.30
2023-01-31T06:42:38.852Z,25.60
2023-01-31T06:43:38.838Z,37.30
2023-01-31T06:44:38.828Z,31.40
2023-01-31T06:45:38.988Z,36.00
2023-01-31T06:46:38.798Z,34.50
2023-01-31T06:47:38.792Z,29.80
2023-01-31T06:48:38.792Z,31.00
2023-01-31T06:49:38.772Z,26.00
2023-01-31T06:50:38.759Z,32.30
2023-01-31T06:51:38.752Z,32.80
2023-01-31T06:52:38.735Z,38.30
2023-01-31T06:53:38.733Z,33.70
2023-01-31T06:54:38.716Z,32.80
2023-01-31T06:55:38.709Z,38.20
2023-01-31T06:56:38.718Z,34.10
2023-01-31T06:57:38.683Z,36.20
2023-01-31T06:58:38.670Z,28.50
2023-01-31T06:59:38.662Z,30.70
2023-01-31T07:00:38.649Z,28.60
2023-01-31T07:01:38.854Z,36.90
2023-01-31T07:02:38.634Z,31.50
2023-01-31T07:03:38.618Z,30.70
2023-01-31T07:04:38.631Z,31.70
2023-01-31T07:05:38.600Z,27.60
2023-01-31T07:06:38.587Z,34.50
2023-01-31T07:07:38.578Z,31.40
2023-01-31T07:08:38.582Z,30.40
2023-01-31T07:09:38.567Z,32.10
2023-01-31T07:10:38.546Z,38.80
2023-01-31T07:11:38.940Z,30.60
2023-01-31T07:12:38.548Z,36.10
2023-01-31T07:13:38.510Z,35.50
2023-01-31T07:14:38.498Z,31.60
2023-01-31T07:15:38.496Z,40.60
2023-01-31T07:16:38.487Z,35.60
2023-01-31T07:17:38.466Z,32.90
2023-01-31T07:18:38.451Z,39.30
2023-01-31T07:19:38.446Z,30.60
2023-01-31T07:20:38.433Z,40.60
2023-01-31T07:21:38.424Z,29.80
2023-01-31T07:22:38.410Z,26.80
2023-01-31T07:23:38.400Z,34.30
2023-01-31T07:24:38.388Z,34.40
2023-01-31T07:25:38.412Z,35.60
2023-01-31T07:26:38.392Z,35.10
2023-01-31T07:27:38.363Z,34.30
2023-01-31T07:28:38.369Z,33.20
2023-01-31T07:29:38.527Z,37.90
2023-01-31T07:30:38.396Z,35.40
2023-01-31T07:31:38.375Z,34.70
2023-01-31T07:32:38.296Z,40.90
2023-01-31T07:33:38.293Z,31.60
2023-01-31T07:34:38.278Z,35.00
2023-01-31T07:35:38.267Z,32.10
2023-01-31T07:36:38.257Z,31.70
2023-01-31T07:37:38.247Z,35.10
2023-01-31T07:38:38.240Z,38.20
2023-01-31T07:39:38.229Z,30.90
2023-01-31T07:40:38.214Z,29.50
2023-01-31T07:41:38.401Z,35.40
2023-01-31T07:42:38.193Z,34.90
2023-01-31T07:43:38.180Z,45.10
2023-01-31T07:44:38.300Z,32.00
2023-01-31T07:45:38.610Z,32.90
2023-01-31T07:46:38.150Z,33.30
2023-01-31T07:47:38.136Z,29.90
2023-01-31T07:48:38.139Z,35.00
2023-01-31T07:49:38.116Z,33.40
2023-01-31T07:50:38.117Z,30.70
2023-01-31T07:51:38.092Z,39.10
2023-01-31T07:52:38.080Z,38.80
2023-01-31T07:53:38.068Z,32.30
2023-01-31T07:54:38.056Z,35.80
2023-01-31T07:55:38.056Z,33.00
2023-01-31T07:56:38.037Z,30.90
2023-01-31T07:57:38.029Z,31.00
2023-01-31T07:58:38.013Z,38.10
2023-01-31T07:59:38.005Z,32.80
2023-01-31T08:00:38.021Z,37.60
2023-01-31T08:01:37.984Z,36.60
2023-01-31T08:02:37.971Z,35.40
2023-01-31T08:03:37.967Z,36.00
2023-01-31T08:04:37.998Z,37.00
2023-01-31T08:05:37.940Z,31.20
2023-01-31T08:06:37.929Z,36.20
2023-01-31T08:07:37.917Z,31.60
2023-01-31T08:08:37.915Z,34.40
2023-01-31T08:09:37.905Z,34.20
2023-01-31T08:10:37.891Z,31.80
2023-01-31T08:11:37.872Z,40.30
2023-01-31T08:12:37.864Z,42.20
2023-01-31T08:13:37.851Z,41.90
2023-01-31T08:14:37.843Z,39.90
2023-01-31T08:15:37.841Z,39.20
2023-01-31T08:16:37.842Z,34.50
2023-01-31T08:17:37.812Z,33.70
2023-01-31T08:18:37.814Z,39.20
2023-01-31T08:19:37.789Z,37.60
2023-01-31T08:20:37.801Z,39.00
2023-01-31T08:21:37.767Z,41.10
2023-01-31T08:22:37.752Z,41.30
2023-01-31T08:23:37.751Z,35.90
2023-01-31T08:24:37.741Z,39.80
2023-01-31T08:25:37.729Z,33.20
2023-01-31T08:26:37.792Z,39.30
2023-01-31T08:27:37.695Z,41.50
2023-01-31T08:28:37.690Z,45.00
2023-01-31T08:29:37.674Z,35.70
2023-01-31T08:30:37.697Z,44.90
2023-01-31T08:31:37.821Z,36.20
2023-01-31T08:32:37.667Z,44.70
2023-01-31T08:33:37.645Z,43.60
2023-01-31T08:34:37.623Z,36.10
2023-01-31T08:35:37.611Z,40.80
2023-01-31T08:36:37.682Z,31.00
2023-01-31T08:37:37.585Z,49.50
2023-01-31T08:38:37.628Z,39.70
2023-01-31T08:39:37.562Z,43.50
2023-01-31T08:40:37.554Z,39.60
2023-01-31T08:41:37.563Z,36.40
2023-01-31T08:42:37.532Z,43.60
2023-01-31T08:43:53.732Z,35.10
2023-01-31T08:44:38.548Z,41.10
2023-01-31T08:45:37.499Z,47.40
2023-01-31T08:46:37.610Z,39.90
2023-01-31T08:47:37.475Z,37.30
2023-01-31T08:48:37.513Z,40.70
2023-01-31T08:49:37.462Z,44.00
2023-01-31T08:50:39.231Z,38.10
2023-01-31T08:51:37.428Z,37.90
2023-01-31T08:52:37.432Z,43.00
2023-01-31T08:53:37.408Z,31.50
2023-01-31T08:54:37.398Z,34.60
2023-01-31T08:55:37.387Z,43.80
2023-01-31T08:56:37.377Z,46.30
2023-01-31T08:57:45.806Z,35.20
2023-01-31T08:58:38.379Z,40.70
2023-01-31T08:59:37.343Z,36.50
2023-01-31T09:00:37.331Z,43.10
2023-01-31T09:01:37.388Z,32.40
2023-01-31T09:02:37.326Z,42.50
2023-01-31T09:03:37.301Z,37.80
2023-01-31T09:04:37.378Z,35.20
2023-01-31T09:05:37.275Z,38.70
2023-01-31T09:06:37.276Z,44.60
2023-01-31T09:07:37.257Z,40.70
2023-01-31T09:08:37.255Z,42.80
2023-01-31T09:09:37.236Z,47.70
2023-01-31T09:10:37.227Z,42.40
2023-01-31T09:11:37.210Z,46.60
2023-01-31T09:12:37.201Z,39.10
2023-01-31T09:13:37.194Z,40.80
2023-01-31T09:14:37.178Z,35.70
2023-01-31T09:15:37.164Z,45.30
2023-01-31T09:16:37.210Z,43.30
2023-01-31T09:17:37.143Z,39.90
2023-01-31T09:18:37.136Z,43.70
2023-01-31T09:19:37.119Z,38.10
2023-01-31T09:20:37.137Z,50.30
2023-01-31T09:21:37.097Z,50.40
2023-01-31T09:22:37.089Z,43.00
2023-01-31T09:23:37.087Z,49.10
2023-01-31T09:24:37.065Z,52.80
2023-01-31T09:25:45.723Z,53.00
2023-01-31T09:26:38.210Z,56.30
2023-01-31T09:27:37.033Z,43.60
2023-01-31T09:28:37.023Z,48.30
2023-01-31T09:29:37.556Z,49.70
2023-01-31T09:30:37.423Z,50.50
2023-01-31T09:31:37.006Z,49.10
2023-01-31T09:32:37.256Z,45.90
2023-01-31T09:33:37.190Z,47.30
2023-01-31T09:34:37.087Z,46.60
2023-01-31T09:35:37.018Z,48.60
2023-01-31T09:36:36.987Z,42.50
2023-01-31T09:37:36.972Z,39.10
2023-01-31T09:38:36.982Z,47.90
2023-01-31T09:39:37.027Z,42.00
2023-01-31T09:40:36.987Z,42.80
2023-01-31T09:41:36.995Z,42.30
2023-01-31T09:42:37.069Z,42.50
2023-01-31T09:43:36.860Z,44.60
2023-01-31T09:44:36.860Z,39.30
2023-01-31T09:45:36.841Z,43.90
2023-01-31T09:46:37.431Z,50.60
2023-01-31T09:47:36.917Z,41.80
2023-01-31T09:48:37.005Z,45.50
2023-01-31T09:49:36.947Z,43.30
2023-01-31T09:50:36.776Z,38.10
2023-01-31T09:51:36.848Z,43.70
2023-01-31T09:52:36.787Z,39.30
2023-01-31T09:53:36.746Z,44.80
2023-01-31T09:54:36.752Z,48.80
2023-01-31T09:55:36.723Z,43.40
2023-01-31T09:56:36.870Z,42.00
2023-01-31T09:57:36.706Z,43.40
2023-01-31T09:58:37.058Z,47.00
2023-01-31T09:59:36.988Z,46.30
2023-01-31T10:00:37.176Z,53.90
2023-01-31T10:01:36.659Z,54.80
2023-01-31T10:02:36.661Z,51.70
2023-01-31T10:03:36.747Z,48.20
2023-01-31T10:04:36.625Z,44.70
2023-01-31T10:05:36.613Z,51.00
2023-01-31T10:06:36.604Z,49.50
2023-01-31T10:07:36.591Z,50.30
2023-01-31T10:08:36.667Z,50.20
2023-01-31T10:09:36.569Z,51.90
2023-01-31T10:10:37.049Z,48.40
2023-01-31T10:11:37.770Z,41.60
2023-01-31T10:12:36.887Z,48.80
2023-01-31T10:13:37.061Z,49.30
2023-01-31T10:14:36.681Z,51.40
2023-01-31T10:15:36.553Z,43.50
2023-01-31T10:16:36.550Z,48.40
2023-01-31T10:17:36.579Z,54.10
2023-01-31T10:18:36.473Z,56.10
2023-01-31T10:19:36.461Z,51.10
2023-01-31T10:20:37.175Z,55.80
2023-01-31T10:21:36.986Z,55.20
2023-01-31T10:22:37.066Z,53.20
2023-01-31T10:23:37.041Z,45.30
2023-01-31T10:24:36.765Z,41.90
2023-01-31T10:25:36.890Z,52.60
2023-01-31T10:26:36.525Z,48.70
2023-01-31T10:27:36.616Z,48.30
2023-01-31T10:28:36.598Z,44.60
2023-01-31T10:29:36.397Z,49.80
2023-01-31T10:30:36.391Z,45.00
2023-01-31T10:31:36.401Z,43.70
2023-01-31T10:32:36.320Z,42.70
2023-01-31T10:33:36.305Z,52.60
2023-01-31T10:34:36.295Z,42.50
2023-01-31T10:35:36.298Z,41.10
2023-01-31T10:36:36.282Z,41.80
2023-01-31T10:37:36.263Z,45.30
2023-01-31T10:38:36.256Z,43.10
2023-01-31T10:39:36.242Z,43.70
2023-01-31T10:40:36.252Z,39.00
2023-01-31T10:41:36.218Z,41.30
2023-01-31T10:42:36.218Z,37.80
2023-01-31T10:43:36.208Z,37.80
2023-01-31T10:44:36.201Z,39.70
2023-01-31T10:45:36.203Z,42.40
2023-01-31T10:46:36.196Z,44.90
2023-01-31T10:47:36.152Z,45.20
2023-01-31T10:48:36.142Z,48.90
2023-01-31T10:49:36.135Z,43.00
2023-01-31T10:50:36.126Z,45.20
2023-01-31T10:51:36.206Z,38.60
2023-01-31T10:52:36.124Z,37.80
2023-01-31T10:53:36.289Z,45.70
2023-01-31T10:54:36.274Z,42.20
2023-01-31T10:55:36.205Z,37.70
2023-01-31T10:56:36.707Z,46.10
2023-01-31T10:57:36.442Z,41.90
2023-01-31T10:58:36.476Z,65.70
2023-01-31T10:59:36.026Z,48.50
2023-01-31T11:00:36.015Z,54.40
2023-01-31T11:01:36.004Z,48.70
2023-01-31T11:02:36.109Z,57.80
2023-01-31T11:03:36.022Z,39.20
2023-01-31T11:04:35.971Z,32.20
2023-01-31T11:05:35.963Z,52.40
2023-01-31T11:06:35.947Z,24.90
2023-01-31T11:07:35.939Z,34.20
2023-01-31T11:08:35.928Z,36.10
2023-01-31T11:09:35.913Z,37.20
2023-01-31T11:10:35.901Z,35.40
2023-01-31T11:11:35.888Z,30.30
2023-01-31T11:12:35.925Z,32.00
2023-01-31T11:13:35.866Z,37.80
2023-01-31T11:14:35.865Z,39.30
2023-01-31T11:15:35.859Z,39.10
2023-01-31T11:16:35.889Z,29.60
2023-01-31T11:17:35.826Z,39.90
2023-01-31T11:18:35.819Z,60.50
2023-01-31T11:19:35.799Z,51.90
2023-01-31T11:20:35.799Z,67.90
2023-01-31T11:21:35.826Z,37.40
2023-01-31T11:22:35.783Z,39.30
2023-01-31T11:23:35.769Z,40.00
2023-01-31T11:24:35.758Z,43.30
2023-01-31T11:25:35.741Z,36.60
2023-01-31T11:26:35.908Z,49.90
2023-01-31T11:27:35.715Z,54.40
2023-01-31T11:28:35.759Z,43.80
2023-01-31T11:29:35.695Z,40.80
2023-01-31T11:30:35.726Z,64.20
2023-01-31T11:31:35.737Z,41.30
2023-01-31T11:32:35.659Z,49.20
2023-01-31T11:33:35.649Z,55.40
2023-01-31T11:34:35.636Z,41.80
2023-01-31T11:35:35.624Z,36.10
2023-01-31T11:36:35.621Z,39.80
2023-01-31T11:37:35.608Z,45.40
2023-01-31T11:38:35.598Z,51.60
2023-01-31T11:39:35.582Z,43.80
2023-01-31T11:40:35.588Z,45.80
2023-01-31T11:41:35.588Z,39.50
2023-01-31T11:42:35.564Z,34.30
2023-01-31T11:43:35.675Z,34.10
2023-01-31T11:44:35.555Z,38.00
2023-01-31T11:45:35.516Z,37.80
2023-01-31T11:46:35.604Z,39.80
2023-01-31T11:47:35.491Z,34.20
2023-01-31T11:48:35.482Z,42.90
2023-01-31T11:49:35.473Z,38.80
2023-01-31T11:50:35.468Z,36.40
2023-01-31T11:51:35.451Z,30.90
2023-01-31T11:52:35.436Z,37.10
2023-01-31T11:53:35.438Z,39.10
2023-01-31T11:54:35.413Z,33.10
2023-01-31T11:55:35.502Z,26.70
2023-01-31T11:56:35.391Z,31.70
2023-01-31T11:57:35.405Z,31.10
2023-01-31T11:58:35.368Z,27.00
2023-01-31T11:59:35.368Z,36.10
2023-01-31T12:00:35.386Z,33.60
2023-01-31T12:01:35.338Z,42.70
2023-01-31T12:02:35.498Z,31.40
2023-01-31T12:03:35.372Z,30.60
2023-01-31T12:04:35.319Z,41.70
2023-01-31T12:05:35.297Z,31.20
2023-01-31T12:06:35.297Z,26.20
2023-01-31T12:07:35.271Z,37.20
2023-01-31T12:08:35.269Z,32.50
2023-01-31T12:09:35.250Z,34.40
2023-01-31T12:10:35.241Z,35.30
2023-01-31T12:11:35.326Z,22.80
2023-01-31T12:12:35.222Z,31.90
2023-01-31T12:13:35.212Z,32.40
2023-01-31T12:14:35.214Z,29.90
2023-01-31T12:15:35.180Z,31.90
2023-01-31T12:16:35.297Z,36.30
2023-01-31T12:17:35.171Z,30.40
2023-01-31T12:18:35.151Z,30.80
2023-01-31T12:19:35.140Z,32.10
2023-01-31T12:20:35.137Z,36.10
2023-01-31T12:21:35.122Z,29.60
2023-01-31T12:22:35.106Z,22.10
2023-01-31T12:23:35.141Z,31.20
2023-01-31T12:24:35.087Z,29.90
2023-01-31T12:25:35.070Z,28.90
2023-01-31T12:26:35.193Z,23.50
2023-01-31T12:27:35.048Z,24.50
2023-01-31T12:28:35.042Z,26.30
2023-01-31T12:29:35.039Z,22.30
2023-01-31T12:30:35.093Z,20.90
2023-01-31T12:31:35.063Z,19.40
2023-01-31T12:32:35.018Z,19.50
2023-01-31T12:33:34.988Z,27.10
2023-01-31T12:34:34.995Z,17.80
2023-01-31T12:35:34.962Z,29.80
2023-01-31T12:36:34.965Z,31.30
2023-01-31T12:37:34.943Z,22.30
2023-01-31T12:38:34.927Z,22.90
2023-01-31T12:39:34.916Z,21.90
2023-01-31T12:40:34.908Z,21.20
2023-01-31T12:41:34.914Z,20.40
2023-01-31T12:42:35.020Z,20.70
2023-01-31T12:43:34.881Z,19.70
2023-01-31T12:44:34.894Z,21.10
2023-01-31T12:45:34.868Z,25.90
2023-01-31T12:46:34.931Z,25.10
2023-01-31T12:47:34.854Z,20.10
2023-01-31T12:48:34.849Z,19.30
2023-01-31T12:49:34.813Z,21.50
2023-01-31T12:50:34.805Z,20.40
2023-01-31T12:51:34.784Z,24.50
2023-01-31T12:52:34.777Z,15.30